الصفحة الرئيسية
METAR-TAF:

METAR-TAF

مطار :

Sloulin Field International Airport

Williston, داكوتا الشمالية, الولايات المتحدة

دائرة عرض: 48-10-26N, خط طول: 103-38-12W, ارتفاع: 604 متر

مراقبة الطقس الحالي

تاريخ ووقت الإصدار 42 دقيقة قبل الساعة 12:52UTC
ريح 6 عقدة من الغرب/الجنوب الغربي
درجة الحرارة -4°درجة مئوية
الرطوبة 74%
ضغط 1015 hPa
الرؤية: 16.1 كم
سماء صافية

METAR: KISN 131252Z AUTO 24006KT 10SM CLR M04/M08 A2998 RMK AO2 SLP178 T10391078

زمن: 07:34 (13:34 UTC)

توقعات

تاريخ ووقت الإصدار 2ساعات و 7 دقيقة قبل الساعة 11:27UTC
التوقعات صالحة من13 الساعة 12 UTC إلى 14 الساعة 12 UTC
ريح 12 عقدة من الغرب/الجنوب الغربي
الرؤية: 10 كم
سماء صافية
من 13 الساعة 1500 UTC
ريح 6 عقدة من الجنوب الغربي
الرؤية: 10 كم
غيوم قليلة على ارتفاع 25000 قدم

TAF: KISN 131127Z 1312/1412 24012KT P6SM SKC FM131500 23006KT P6SM FEW250

أرصاد الطقس والتوقعات من أكثر من 4000 مطار (تقارير الطقس للمطار METAR والتنبؤ بالطقس بالمطارTAF).

المحطات المتاحة هي النقط الصفراء والحمراء على الخريطة.

حرك المؤشر فوق النقطة لمعرفة اسم المحطة.

ثم انقر لمعرفة أرصاد وتوقعات الطقس.

لتغيير الخارطة: اضغط على الأزرار الخضراء مع رمز الصليب الأسود للتكبير. على الزر الأخضر مع شرطة للتصغير، أو على الأسهم الخضراء للخرائط المجاورة.


METAR-TAF: